Time;durP1;ratioP1;P1;durP2;ratioP2;P2;SDS_P1;SDS_P2;PMS_P1;PMS_P2;Temp;Humidity;BMP_temperature;BMP_pressure;BME280_temperature;BME280_humidity;BME280_pressure;Samples;Min_cycle;Max_cycle;Signal;HPM_P1;HPM_P2
2022/04/30 00:01:30;;;;;;;17.35;10.15;;;;;;;16.78;50.97;100411.31;4981696;28;20042;-83
2022/04/30 00:03:57;;;;;;;14.20;10.95;;;;;;;16.78;51.06;100420.19;4968047;28;20130;-83
2022/04/30 00:06:23;;;;;;;15.15;10.95;;;;;;;16.75;50.88;100420.50;4951666;28;20042;-84
2022/04/30 00:08:50;;;;;;;15.93;11.77;;;;;;;16.71;51.39;100419.13;4986113;28;20038;-83
2022/04/30 00:11:17;;;;;;;20.65;11.65;;;;;;;16.71;51.22;100420.00;4950688;28;20061;-82
2022/04/30 00:13:43;;;;;;;13.52;11.30;;;;;;;16.68;51.03;100417.59;4968291;28;20047;-83
2022/04/30 00:16:10;;;;;;;19.58;12.07;;;;;;;16.65;51.02;100417.09;4983960;28;20053;-83
2022/04/30 00:18:37;;;;;;;18.17;11.18;;;;;;;16.66;50.94;100422.31;4953348;28;20399;-84
2022/04/30 00:21:05;;;;;;;14.07;10.05;;;;;;;16.67;51.43;100428.50;4982360;28;20042;-85
2022/04/30 00:23:31;;;;;;;16.13;11.77;;;;;;;16.65;51.54;100428.66;4984026;28;20051;-83
2022/04/30 00:25:58;;;;;;;15.90;11.73;;;;;;;16.65;51.46;100427.84;4983616;28;20050;-83
2022/04/30 00:28:25;;;;;;;16.92;11.90;;;;;;;16.66;51.24;100432.19;4965578;28;20501;-84
2022/04/30 00:30:53;;;;;;;16.05;11.23;;;;;;;16.64;51.33;100420.81;4984001;28;20054;-83
2022/04/30 00:33:20;;;;;;;14.05;11.00;;;;;;;16.65;51.39;100431.34;5002351;28;20054;-83
2022/04/30 00:35:48;;;;;;;17.48;10.90;;;;;;;16.66;51.33;100424.13;4970554;28;20140;-83
2022/04/30 00:38:15;;;;;;;17.05;11.57;;;;;;;16.64;51.40;100421.63;4963670;28;20066;-84
2022/04/30 00:40:43;;;;;;;16.02;11.15;;;;;;;16.63;51.68;100417.25;4954180;28;20054;-83
2022/04/30 00:43:09;;;;;;;14.27;10.48;;;;;;;16.63;51.86;100411.06;4989143;28;20042;-83
2022/04/30 00:45:36;;;;;;;14.80;10.43;;;;;;;16.63;51.71;100408.38;4985320;28;20058;-83
2022/04/30 00:48:03;;;;;;;13.48;10.18;;;;;;;16.64;51.86;100405.53;4987140;28;20069;-83
2022/04/30 00:50:33;;;;;;;14.88;10.00;;;;;;;16.61;52.44;100405.00;4967548;28;20073;-83
2022/04/30 00:53:03;;;;;;;16.30;10.57;;;;;;;16.62;52.25;100396.81;4967393;28;20109;-83
2022/04/30 00:55:31;;;;;;;14.13;10.13;;;;;;;16.62;52.39;100402.19;4980710;28;20054;-83
2022/04/30 00:58:04;;;;;;;11.70;9.23;;;;;;;16.62;52.43;100402.19;4963285;28;20046;-83
2022/04/30 01:00:31;;;;;;;12.10;9.20;;;;;;;16.63;52.14;100401.16;4962846;28;20046;-83
2022/04/30 01:03:11;;;;;;;11.35;8.77;;;;;;;16.65;52.23;100396.50;4964748;28;20627;-83
2022/04/30 01:05:45;;;;;;;11.45;8.65;;;;;;;16.69;51.98;100399.72;4967151;28;20133;-82
2022/04/30 01:08:12;;;;;;;11.05;9.15;;;;;;;16.67;51.98;100394.50;4972968;28;20053;-81
2022/04/30 01:10:38;;;;;;;11.40;9.20;;;;;;;16.69;51.81;100400.53;4969441;28;20042;-80
2022/04/30 01:13:05;;;;;;;10.70;9.00;;;;;;;16.68;51.80;100398.84;4989419;28;20142;-81
2022/04/30 01:15:34;;;;;;;14.95;10.82;;;;;;;16.64;51.88;100400.19;4961298;28;20048;-81
2022/04/30 01:18:01;;;;;;;12.38;9.20;;;;;;;16.57;51.67;100396.47;4985588;28;20050;-81
2022/04/30 01:20:31;;;;;;;14.55;9.82;;;;;;;16.43;51.71;100392.53;4948277;28;20042;-81
2022/04/30 01:23:02;;;;;;;14.25;9.95;;;;;;;16.43;51.76;100392.53;4965402;28;20046;-80
2022/04/30 01:25:33;;;;;;;17.02;10.45;;;;;;;16.49;52.38;100397.25;4990508;28;20054;-81
2022/04/30 01:28:01;;;;;;;12.73;10.00;;;;;;;16.52;52.61;100393.41;4968333;28;20046;-80
2022/04/30 01:30:29;;;;;;;12.02;9.27;;;;;;;16.52;52.49;100393.41;4970931;28;20046;-81
2022/04/30 01:38:27;;;;;;;17.08;11.45;;;;;;;16.42;52.16;100382.81;4950882;28;20048;-81
2022/04/30 01:40:54;;;;;;;21.50;12.85;;;;;;;16.19;52.70;100389.72;4969317;28;20058;-80
2022/04/30 01:43:22;;;;;;;16.30;11.07;;;;;;;16.33;52.61;100396.31;4953444;28;20057;-80
2022/04/30 01:45:49;;;;;;;17.10;10.48;;;;;;;16.41;52.68;100391.00;4949810;28;20118;-81
2022/04/30 01:48:16;;;;;;;20.75;12.88;;;;;;;16.36;52.74;100388.81;4984940;28;20226;-80
2022/04/30 01:50:44;;;;;;;23.33;13.05;;;;;;;16.44;52.39;100388.03;4953984;28;20046;-81
2022/04/30 01:53:11;;;;;;;22.70;13.73;;;;;;;16.35;52.82;100381.78;4970231;28;20074;-81
2022/04/30 01:55:38;;;;;;;28.42;15.30;;;;;;;16.36;53.00;100378.09;4983149;28;20112;-81
2022/04/30 01:58:11;;;;;;;23.63;14.40;;;;;;;16.35;52.94;100372.91;4948545;28;20053;-81
2022/04/30 02:00:37;;;;;;;24.63;13.85;;;;;;;16.42;53.06;100373.94;4987437;28;20048;-81
2022/04/30 02:03:08;;;;;;;24.65;14.27;;;;;;;16.42;53.30;100376.63;4969632;28;20046;-81
2022/04/30 02:05:37;;;;;;;32.15;15.32;;;;;;;16.39;53.02;100371.59;4967507;28;20046;-81
2022/04/30 02:08:10;;;;;;;26.85;15.57;;;;;;;16.25;53.48;100373.00;4968472;28;20093;-80
2022/04/30 02:10:41;;;;;;;25.35;15.05;;;;;;;16.15;53.92;100378.47;4972841;28;20525;-81
2022/04/30 02:13:10;;;;;;;22.60;12.93;;;;;;;16.27;53.95;100366.50;4985863;28;20544;-81
2022/04/30 02:15:40;;;;;;;28.63;15.55;;;;;;;16.27;53.66;100368.34;4972597;28;20115;-81
2022/04/30 02:18:10;;;;;;;29.83;15.68;;;;;;;16.28;53.62;100357.47;4984053;28;20063;-80
2022/04/30 02:20:39;;;;;;;26.40;14.93;;;;;;;16.33;53.29;100358.81;4966028;28;20137;-81
2022/04/30 02:23:09;;;;;;;32.15;15.70;;;;;;;16.31;53.56;100353.63;4972166;28;20668;-80
2022/04/30 02:25:37;;;;;;;28.88;15.80;;;;;;;16.25;53.55;100352.41;4986888;28;20049;-81
2022/04/30 02:28:06;;;;;;;32.13;15.45;;;;;;;16.02;53.84;100354.78;4987064;28;20047;-81
2022/04/30 02:30:37;;;;;;;29.38;15.85;;;;;;;15.79;54.67;100351.78;4989928;28;20057;-81
2022/04/30 02:33:09;;;;;;;37.00;18.37;;;;;;;15.70;55.59;100362.59;4953346;28;20117;-81
2022/04/30 02:35:37;;;;;;;34.63;17.63;;;;;;;15.60;55.26;100357.34;4973329;28;20432;-81
2022/04/30 02:38:08;;;;;;;36.00;17.65;;;;;;;15.50;55.66;100359.25;4969077;28;20093;-81
2022/04/30 02:40:36;;;;;;;31.63;16.80;;;;;;;15.23;56.13;100354.84;4984553;28;20129;-81
2022/04/30 02:43:06;;;;;;;34.17;17.40;;;;;;;15.33;55.58;100348.41;4972546;28;20054;-81
2022/04/30 02:45:37;;;;;;;40.83;18.33;;;;;;;15.32;55.92;100356.59;4977517;28;20117;-81
2022/04/30 02:48:06;;;;;;;36.15;18.20;;;;;;;15.12;56.53;100355.91;4960926;28;20046;-81
2022/04/30 02:50:34;;;;;;;35.17;18.02;;;;;;;15.01;56.63;100353.44;4973565;28;20132;-81
2022/04/30 02:53:03;;;;;;;42.58;19.30;;;;;;;14.87;57.41;100355.66;4975786;28;20153;-81
2022/04/30 02:55:30;;;;;;;40.65;18.48;;;;;;;15.03;56.48;100349.63;4988764;28;20054;-80
2022/04/30 03:00:45;;;;;;;39.60;18.63;;;;;;;15.00;56.95;100357.94;4985616;28;20038;-81
2022/04/30 03:03:22;;;;;;;35.40;18.45;;;;;;;15.04;57.09;100356.66;4984132;28;20768;-80
2022/04/30 03:05:53;;;;;;;39.80;17.92;;;;;;;15.19;56.68;100363.16;4971071;28;20074;-81
2022/04/30 03:08:21;;;;;;;35.95;17.10;;;;;;;15.44;56.12;100359.84;4971128;28;20043;-81
2022/04/30 03:10:49;;;;;;;37.97;18.08;;;;;;;15.34;55.91;100368.81;4985834;28;20379;-81
2022/04/30 03:13:20;;;;;;;35.00;16.52;;;;;;;15.38;55.66;100367.50;4952640;28;20049;-81
2022/04/30 03:15:48;;;;;;;35.88;17.00;;;;;;;15.15;56.34;100371.66;4984636;28;20077;-81
2022/04/30 03:23:48;;;;;;;35.65;17.90;;;;;;;14.97;56.52;100372.47;4956811;28;20042;-80
2022/04/30 03:26:20;;;;;;;36.80;16.10;;;;;;;14.94;56.59;100374.63;4972848;28;20060;-80
2022/04/30 03:28:47;;;;;;;38.97;16.95;;;;;;;15.04;56.60;100374.56;4968298;28;20049;-80
2022/04/30 03:31:18;;;;;;;34.00;17.30;;;;;;;15.04;56.39;100372.72;4981286;28;20057;-80
2022/04/30 03:33:48;;;;;;;34.80;16.70;;;;;;;15.01;56.34;100374.84;4984402;28;20042;-80
2022/04/30 03:36:16;;;;;;;36.55;15.75;;;;;;;14.81;56.87;100374.97;4968009;28;20133;-80
2022/04/30 03:38:43;;;;;;;30.80;16.27;;;;;;;14.73;56.88;100367.69;4967830;28;20042;-80
2022/04/30 03:41:10;;;;;;;35.20;17.77;;;;;;;14.83;56.80;100372.13;4966071;28;20042;-80
2022/04/30 03:43:36;;;;;;;35.15;16.48;;;;;;;14.93;56.65;100373.78;4982660;28;20046;-80
2022/04/30 03:46:05;;;;;;;32.38;15.48;;;;;;;14.72;57.08;100378.53;4983184;28;20050;-80
2022/04/30 03:48:32;;;;;;;31.15;16.38;;;;;;;14.66;57.29;100381.81;4966716;28;20137;-80
2022/04/30 03:50:59;;;;;;;32.92;16.23;;;;;;;14.79;57.05;100378.78;4948832;28;20101;-80
2022/04/30 03:53:26;;;;;;;27.80;16.10;;;;;;;14.92;56.68;100379.25;4979247;28;20055;-80
2022/04/30 03:55:53;;;;;;;28.83;15.20;;;;;;;15.09;56.18;100381.13;4992624;28;20042;-80
2022/04/30 03:58:22;;;;;;;34.53;16.13;;;;;;;15.24;56.00;100384.13;4966855;28;20070;-81
2022/04/30 04:00:49;;;;;;;28.38;14.57;;;;;;;15.41;55.89;100380.56;4980577;28;20044;-81
2022/04/30 04:03:15;;;;;;;29.52;15.57;;;;;;;15.51;55.74;100379.66;4967729;28;20078;-81
2022/04/30 04:05:42;;;;;;;33.42;16.17;;;;;;;15.50;55.62;100381.50;4967993;28;20517;-80
2022/04/30 04:08:14;;;;;;;28.58;14.80;;;;;;;15.60;55.82;100379.59;4969413;28;20096;-81
2022/04/30 04:10:41;;;;;;;33.65;15.32;;;;;;;15.63;55.87;100375.75;4980710;28;20057;-80
2022/04/30 04:18:39;;;;;;;36.20;16.42;;;;;;;15.49;55.56;100381.66;4946499;28;20132;-80
2022/04/30 04:21:07;;;;;;;29.58;15.43;;;;;;;15.29;55.69;100381.81;4984221;28;20121;-80
2022/04/30 04:26:20;;;;;;;33.42;17.02;;;;;;;14.88;56.63;100385.91;4990244;28;20066;-80
2022/04/30 04:28:47;;;;;;;34.45;15.68;;;;;;;14.88;56.36;100388.56;4955855;28;20134;-80
2022/04/30 04:31:16;;;;;;;30.48;16.00;;;;;;;14.78;56.65;100383.28;4970204;28;20490;-81
2022/04/30 04:33:44;;;;;;;30.63;15.88;;;;;;;14.56;57.00;100400.56;4970278;28;20116;-81
2022/04/30 04:36:11;;;;;;;29.80;15.63;;;;;;;14.65;56.99;100396.97;4956562;28;20497;-81
2022/04/30 04:38:38;;;;;;;38.95;17.33;;;;;;;14.69;57.02;100403.72;4985457;28;20526;-80
2022/04/30 04:41:05;;;;;;;36.13;16.60;;;;;;;14.71;56.88;100406.28;4957192;28;20046;-80
2022/04/30 04:43:31;;;;;;;33.80;16.08;;;;;;;14.78;56.83;100410.00;4989671;28;20050;-80
2022/04/30 04:46:00;;;;;;;32.25;16.08;;;;;;;14.96;56.75;100421.59;4989756;28;20374;-80
2022/04/30 04:48:26;;;;;;;28.83;15.02;;;;;;;15.00;56.73;100413.28;4974103;28;20065;-80
2022/04/30 04:50:53;;;;;;;26.30;15.10;;;;;;;15.10;56.96;100417.56;4958853;28;20501;-82
2022/04/30 04:53:20;;;;;;;32.33;16.65;;;;;;;15.22;57.03;100428.91;4957416;28;20061;-80
2022/04/30 04:55:46;;;;;;;27.25;14.65;;;;;;;15.26;57.28;100432.94;4936587;28;20398;-80
2022/04/30 04:58:14;;;;;;;29.50;15.75;;;;;;;15.33;57.13;100427.84;4936978;28;20046;-80
2022/04/30 05:00:41;;;;;;;31.45;16.67;;;;;;;15.38;57.05;100433.56;4981636;28;20142;-80
2022/04/30 05:03:09;;;;;;;30.60;15.57;;;;;;;15.39;57.13;100435.25;4971766;28;20046;-80
2022/04/30 05:05:36;;;;;;;29.10;15.00;;;;;;;15.46;56.72;100430.97;4985295;28;20154;-81
2022/04/30 05:08:03;;;;;;;30.05;14.77;;;;;;;15.48;56.73;100429.00;4939439;28;20070;-80
2022/04/30 05:10:30;;;;;;;33.03;15.77;;;;;;;15.38;56.72;100430.91;4945991;28;20489;-80
2022/04/30 05:12:57;;;;;;;34.00;16.23;;;;;;;15.40;57.03;100435.09;4974668;28;20054;-80
2022/04/30 05:15:23;;;;;;;26.05;14.70;;;;;;;15.43;57.27;100442.00;4976514;28;20049;-81
2022/04/30 05:17:50;;;;;;;30.30;16.25;;;;;;;15.47;57.28;100432.66;4972059;28;20053;-81
2022/04/30 05:20:17;;;;;;;30.55;16.55;;;;;;;15.44;56.95;100429.44;4935945;28;20054;-80
2022/04/30 05:23:04;;;;;;;31.02;15.48;;;;;;;15.36;56.80;100432.88;4968099;28;20070;-81
2022/04/30 05:25:31;;;;;;;31.13;15.68;;;;;;;15.39;56.29;100437.91;4952747;28;20049;-80
2022/04/30 05:27:57;;;;;;;29.95;15.98;;;;;;;15.31;56.38;100438.69;4970414;28;20054;-81
2022/04/30 05:30:24;;;;;;;32.03;16.60;;;;;;;15.31;56.34;100436.00;4952066;28;20134;-80
2022/04/30 05:32:51;;;;;;;30.15;16.15;;;;;;;15.36;56.68;100444.41;4968836;28;20517;-81
2022/04/30 05:35:18;;;;;;;31.88;17.25;;;;;;;15.34;56.44;100443.75;4969036;28;20042;-81
2022/04/30 05:37:44;;;;;;;31.52;14.63;;;;;;;15.33;56.71;100441.22;4969417;28;20050;-81
2022/04/30 05:40:11;;;;;;;26.75;14.75;;;;;;;15.27;56.56;100450.69;4984062;28;20046;-81
2022/04/30 05:42:38;;;;;;;27.10;17.27;;;;;;;15.23;56.71;100435.94;4985449;28;20525;-80
2022/04/30 05:45:06;;;;;;;29.35;16.15;;;;;;;15.30;56.32;100441.53;4979181;28;20042;-80
2022/04/30 05:47:32;;;;;;;30.50;16.52;;;;;;;15.19;56.61;100435.41;4951705;28;20057;-81
2022/04/30 05:49:59;;;;;;;30.15;15.13;;;;;;;15.13;56.87;100446.69;4969247;28;20054;-80
2022/04/30 05:52:26;;;;;;;28.55;15.50;;;;;;;15.12;56.79;100439.66;4971036;28;20414;-80
2022/04/30 05:54:54;;;;;;;28.35;16.13;;;;;;;15.11;56.78;100447.81;4990431;28;20046;-80
2022/04/30 05:57:20;;;;;;;31.88;16.67;;;;;;;15.08;56.43;100451.63;4986932;28;20398;-90
2022/04/30 05:59:47;;;;;;;28.83;15.40;;;;;;;15.06;56.57;100444.75;4937011;28;20454;-90
2022/04/30 06:02:14;;;;;;;31.52;16.13;;;;;;;15.07;56.62;100446.47;4985921;28;20399;-90
2022/04/30 06:04:43;;;;;;;30.50;16.33;;;;;;;15.04;56.98;100452.13;4985714;28;20093;-90
2022/04/30 06:07:12;;;;;;;29.30;15.52;;;;;;;14.99;56.87;100449.88;4948787;28;20514;-91
2022/04/30 06:09:43;;;;;;;25.88;14.93;;;;;;;14.92;57.26;100448.78;4986165;28;20047;-91
2022/04/30 06:12:10;;;;;;;31.05;16.40;;;;;;;14.87;57.12;100454.59;4953086;28;20053;-89
2022/04/30 06:14:37;;;;;;;28.30;16.48;;;;;;;14.86;57.30;100455.59;4970445;28;20062;-91
2022/04/30 06:17:04;;;;;;;27.95;15.35;;;;;;;14.76;57.25;100462.81;4956350;28;20046;-87
2022/04/30 06:19:31;;;;;;;26.35;15.18;;;;;;;14.80;57.09;100456.16;4986511;28;20046;-91
2022/04/30 06:21:57;;;;;;;33.85;16.92;;;;;;;14.70;57.23;100466.88;4970022;28;20045;-90
2022/04/30 06:24:24;;;;;;;33.53;15.65;;;;;;;14.82;57.06;100459.53;4985838;28;20046;-90
2022/04/30 06:26:51;;;;;;;25.13;14.88;;;;;;;14.80;57.36;100464.19;4985262;28;20422;-90
2022/04/30 06:29:18;;;;;;;28.55;15.38;;;;;;;14.85;57.02;100458.38;4990105;28;20042;-89
2022/04/30 06:31:45;;;;;;;31.38;16.73;;;;;;;14.85;57.04;100464.56;4987902;28;20502;-90
2022/04/30 06:34:12;;;;;;;24.60;14.85;;;;;;;15.00;57.02;100464.94;4970819;28;20050;-90
2022/04/30 06:36:39;;;;;;;28.42;15.10;;;;;;;15.10;56.65;100465.72;4954065;28;20046;-91
2022/04/30 06:39:06;;;;;;;28.00;15.23;;;;;;;15.18;56.63;100462.28;4970825;28;20093;-90
2022/04/30 06:41:38;;;;;;;22.90;14.65;;;;;;;15.14;56.52;100464.44;4969850;28;20413;-84
2022/04/30 06:44:05;;;;;;;33.45;16.95;;;;;;;15.21;56.54;100464.66;4950600;28;20129;-82
2022/04/30 06:46:33;;;;;;;35.83;16.73;;;;;;;15.22;56.65;100471.72;4980694;28;20051;-82
2022/04/30 06:49:01;;;;;;;32.75;15.73;;;;;;;15.31;57.00;100480.66;4949998;28;20050;-78
2022/04/30 06:51:29;;;;;;;29.35;15.55;;;;;;;15.35;56.69;100471.34;4988313;28;20045;-77
2022/04/30 06:59:28;;;;;;;25.33;15.70;;;;;;;15.46;57.04;100487.19;4998567;28;20050;-76
2022/04/30 07:02:02;;;;;;;28.42;16.58;;;;;;;15.48;57.35;100481.69;4969686;28;20076;-77
2022/04/30 07:04:29;;;;;;;31.40;16.42;;;;;;;15.32;57.67;100490.38;4984234;28;20049;-76
2022/04/30 07:06:57;;;;;;;26.83;15.68;;;;;;;15.35;57.72;100495.44;4986641;28;20050;-76
2022/04/30 07:09:23;;;;;;;33.17;16.88;;;;;;;15.39;57.91;100491.44;4987182;28;20486;-76
2022/04/30 07:11:50;;;;;;;29.98;17.02;;;;;;;15.40;58.27;100491.31;4966952;28;20046;-76
2022/04/30 07:14:17;;;;;;;27.95;16.42;;;;;;;15.45;57.79;100498.06;4985922;28;20505;-76
2022/04/30 07:16:44;;;;;;;29.60;17.52;;;;;;;15.41;58.00;100498.31;4968619;28;20058;-77
2022/04/30 07:19:11;;;;;;;31.92;18.33;;;;;;;15.39;58.15;100502.16;4985866;28;20058;-76
2022/04/30 07:21:38;;;;;;;30.23;16.85;;;;;;;15.39;58.54;100497.66;4979010;28;20050;-73
2022/04/30 07:24:05;;;;;;;31.80;17.92;;;;;;;15.41;58.40;100501.00;4959324;28;20043;-74
2022/04/30 07:26:32;;;;;;;37.70;18.60;;;;;;;15.36;58.14;100499.78;4980847;28;20575;-74
2022/04/30 07:28:58;;;;;;;37.05;17.75;;;;;;;15.38;58.61;100497.81;4983494;28;20045;-75
2022/04/30 07:31:25;;;;;;;35.95;18.42;;;;;;;15.39;58.53;100508.38;4985894;28;20073;-74
2022/04/30 07:33:53;;;;;;;30.83;16.50;;;;;;;15.43;58.89;100506.22;4996719;28;20034;-74
2022/04/30 07:36:21;;;;;;;30.55;17.35;;;;;;;15.46;59.08;100508.59;4983057;28;20061;-76
2022/04/30 07:38:48;;;;;;;36.28;18.50;;;;;;;15.47;58.90;100504.94;4967512;28;20054;-76
2022/04/30 07:41:15;;;;;;;32.75;18.40;;;;;;;15.49;58.79;100508.28;4986433;28;20044;-76
2022/04/30 07:43:44;;;;;;;35.80;19.52;;;;;;;15.50;59.34;100507.31;4982905;28;20046;-76
2022/04/30 07:46:11;;;;;;;29.98;18.65;;;;;;;15.58;59.56;100502.03;4985586;28;20501;-74
2022/04/30 07:48:38;;;;;;;35.35;18.92;;;;;;;15.60;59.73;100512.59;4986050;28;20406;-76
2022/04/30 07:51:13;;;;;;;34.65;18.90;;;;;;;15.64;59.74;100511.28;4982169;28;20039;-76
2022/04/30 07:53:41;;;;;;;32.42;18.00;;;;;;;15.66;60.08;100514.66;4979612;28;20046;-75
2022/04/30 07:56:09;;;;;;;40.45;19.70;;;;;;;15.68;59.34;100514.50;4983619;28;20058;-76
2022/04/30 07:58:36;;;;;;;30.65;17.95;;;;;;;15.64;59.34;100513.97;4993546;28;20046;-77
2022/04/30 08:01:03;;;;;;;31.58;18.27;;;;;;;15.58;59.32;100507.38;4969414;28;20046;-78
2022/04/30 08:03:32;;;;;;;33.10;17.50;;;;;;;15.57;59.58;100512.88;4977222;28;20477;-87
2022/04/30 08:05:59;;;;;;;30.55;17.23;;;;;;;15.60;59.47;100512.59;4985541;28;20077;-87
2022/04/30 08:08:26;;;;;;;33.67;18.23;;;;;;;15.63;59.94;100517.63;4985635;28;20633;-88
2022/04/30 08:10:52;;;;;;;33.90;18.95;;;;;;;15.68;60.17;100514.50;4983013;28;20696;-87
2022/04/30 08:13:19;;;;;;;38.80;18.98;;;;;;;15.72;60.29;100511.41;4984307;28;20047;-88
2022/04/30 08:15:46;;;;;;;30.83;18.42;;;;;;;15.71;59.78;100516.91;4972290;28;20359;-88
2022/04/30 08:18:13;;;;;;;32.15;18.88;;;;;;;15.72;59.96;100516.78;4988191;28;20133;-84
2022/04/30 08:20:41;;;;;;;36.65;17.85;;;;;;;15.71;59.64;100517.75;4986439;28;20069;-84
2022/04/30 08:23:08;;;;;;;37.80;18.42;;;;;;;15.66;60.03;100516.50;4990129;28;20049;-83
2022/04/30 08:25:35;;;;;;;26.75;16.45;;;;;;;15.65;60.02;100515.66;4979978;28;20097;-76
2022/04/30 08:28:03;;;;;;;30.80;17.02;;;;;;;15.63;59.25;100515.81;4986953;28;20709;-76
2022/04/30 08:30:31;;;;;;;29.23;17.55;;;;;;;15.60;59.35;100518.78;4992544;28;20050;-76
2022/04/30 08:32:58;;;;;;;31.52;18.13;;;;;;;15.55;59.25;100515.72;4957918;28;20046;-76
2022/04/30 08:35:25;;;;;;;34.28;17.35;;;;;;;15.53;59.70;100523.06;4970479;28;20055;-77
2022/04/30 08:38:07;;;;;;;31.70;17.45;;;;;;;15.54;59.79;100522.06;4991341;28;20031;-77
2022/04/30 08:40:35;;;;;;;32.20;18.63;;;;;;;15.56;60.21;100524.59;4989681;28;20053;-76
2022/04/30 08:43:09;;;;;;;27.55;17.48;;;;;;;15.62;59.88;100522.16;4974772;28;20458;-76
2022/04/30 08:45:36;;;;;;;35.95;18.80;;;;;;;15.57;59.28;100527.13;4977214;28;20043;-77
2022/04/30 08:48:07;;;;;;;31.00;17.88;;;;;;;15.49;59.53;100520.81;4990658;28;20069;-77
2022/04/30 08:50:34;;;;;;;28.05;16.98;;;;;;;15.46;60.00;100521.97;4933427;28;20414;-76
2022/04/30 08:53:01;;;;;;;33.53;16.30;;;;;;;15.43;59.86;100526.78;4990827;28;20046;-76
2022/04/30 08:55:28;;;;;;;34.58;17.13;;;;;;;15.39;60.07;100526.22;4952837;28;20047;-77
2022/04/30 08:57:55;;;;;;;32.03;16.83;;;;;;;15.38;60.23;100525.41;4962770;28;20042;-77
2022/04/30 09:00:21;;;;;;;31.08;17.88;;;;;;;15.40;59.82;100517.22;4988742;28;20486;-77
2022/04/30 09:02:56;;;;;;;34.00;17.98;;;;;;;15.11;61.00;100517.38;4971922;28;20046;-77
2022/04/30 09:05:30;;;;;;;31.63;18.80;;;;;;;15.01;60.96;100509.41;4998295;28;20050;-77
2022/04/30 09:07:59;;;;;;;31.38;19.85;;;;;;;15.01;61.24;100512.09;4972743;28;20518;-88
2022/04/30 09:10:29;;;;;;;40.17;19.20;;;;;;;14.94;61.73;100506.47;4991238;28;20042;-88
2022/04/30 09:13:09;;;;;;;34.08;18.25;;;;;;;14.81;61.84;100508.66;4982066;28;20069;-87
2022/04/30 09:15:38;;;;;;;40.08;20.15;;;;;;;14.86;61.61;100494.84;4959472;28;20410;-87
2022/04/30 09:18:06;;;;;;;30.88;17.92;;;;;;;14.84;61.99;100504.84;4988431;28;20050;-87
2022/04/30 09:20:48;;;;;;;34.45;17.85;;;;;;;14.68;63.50;100506.31;4973220;28;20046;-87
2022/04/30 09:23:26;;;;;;;30.65;18.40;;;;;;;14.83;62.87;100495.97;4977617;28;20136;-84
2022/04/30 09:25:57;;;;;;;31.45;17.77;;;;;;;14.98;62.23;100501.66;4984064;28;20054;-82
2022/04/30 09:28:29;;;;;;;31.63;19.25;;;;;;;15.06;62.12;100500.94;4984842;28;20129;-82
2022/04/30 09:31:13;;;;;;;31.45;17.25;;;;;;;14.81;62.46;100495.28;4971402;28;20043;-81
2022/04/30 09:33:56;;;;;;;31.88;17.75;;;;;;;14.88;62.40;100493.72;4964165;28;20046;-83
2022/04/30 09:39:17;;;;;;;31.23;17.90;;;;;;;15.04;63.22;100501.09;4985073;28;20081;-84
2022/04/30 09:41:44;;;;;;;30.42;17.80;;;;;;;15.24;62.08;100500.97;4961661;28;20093;-83
2022/04/30 09:44:16;;;;;;;30.52;17.85;;;;;;;15.31;62.37;100510.94;4983492;28;20062;-83
2022/04/30 09:46:42;;;;;;;29.27;18.40;;;;;;;15.46;61.85;100505.06;4982074;28;20065;-83
2022/04/30 09:54:48;;;;;;;31.60;18.15;;;;;;;15.04;61.97;100503.78;4972529;28;20137;-84
2022/04/30 09:57:18;;;;;;;30.67;18.17;;;;;;;15.04;62.64;100500.25;4965860;28;20070;-85
2022/04/30 09:59:47;;;;;;;28.20;17.92;;;;;;;15.09;63.14;100503.34;4987122;28;20113;-84
2022/04/30 10:02:16;;;;;;;35.05;18.52;;;;;;;15.08;62.90;100501.63;4997088;28;20399;-86
2022/04/30 10:04:44;;;;;;;34.92;18.40;;;;;;;15.07;62.03;100497.28;4968217;28;20046;-83
2022/04/30 10:07:12;;;;;;;30.50;18.30;;;;;;;14.63;62.76;100497.03;4981748;28;20121;-83
2022/04/30 10:09:58;;;;;;;32.22;17.25;;;;;;;14.45;64.83;100500.44;4969209;28;20043;-85
2022/04/30 10:12:32;;;;;;;30.67;18.80;;;;;;;14.50;64.53;100492.84;4954175;28;20062;-85
2022/04/30 10:15:27;;;;;;;33.38;18.20;;;;;;;14.61;63.90;100497.19;4976066;28;20042;-83
2022/04/30 10:17:56;;;;;;;32.35;17.33;;;;;;;14.90;63.17;100505.09;4923126;28;20047;-83
2022/04/30 10:20:32;;;;;;;25.52;16.33;;;;;;;15.05;63.20;100502.78;4950046;28;20118;-85
2022/04/30 10:23:02;;;;;;;28.88;17.58;;;;;;;15.14;62.37;100501.06;4976353;28;20720;-86
2022/04/30 10:25:36;;;;;;;29.38;17.75;;;;;;;14.86;63.24;100502.88;4952694;28;20043;-84
2022/04/30 10:28:15;;;;;;;31.60;17.00;;;;;;;14.65;63.52;100505.75;4943586;28;20039;-85
2022/04/30 10:30:42;;;;;;;28.95;16.33;;;;;;;14.86;63.24;100506.38;4993621;28;20564;-85
2022/04/30 10:33:10;;;;;;;26.15;15.65;;;;;;;15.04;63.14;100501.09;4982909;28;20062;-83
2022/04/30 10:35:39;;;;;;;25.63;14.85;;;;;;;15.18;63.11;100505.09;4985302;28;20043;-85
2022/04/30 10:38:13;;;;;;;28.52;15.02;;;;;;;15.27;63.12;100500.69;4968290;28;20049;-85
2022/04/30 10:40:41;;;;;;;25.33;16.52;;;;;;;15.35;62.66;100512.31;4961062;28;20053;-85
2022/04/30 10:43:32;;;;;;;24.42;15.70;;;;;;;15.26;62.31;100494.47;4968827;28;20042;-85
2022/04/30 10:45:59;;;;;;;22.67;14.50;;;;;;;15.41;62.42;100503.69;4966527;28;20387;-85
2022/04/30 10:48:26;;;;;;;19.17;12.77;;;;;;;15.52;62.32;100501.78;4974480;28;20445;-85
2022/04/30 10:51:06;;;;;;;22.38;14.25;;;;;;;15.52;61.99;100499.09;4987651;28;20486;-85
2022/04/30 10:53:34;;;;;;;21.17;14.15;;;;;;;15.60;61.77;100489.34;4980833;28;20121;-84
2022/04/30 10:56:03;;;;;;;23.42;13.85;;;;;;;15.67;61.37;100497.59;4989379;28;20614;-85
2022/04/30 10:58:32;;;;;;;22.65;13.10;;;;;;;15.49;61.13;100500.25;4988791;28;20072;-85
2022/04/30 11:01:16;;;;;;;19.10;12.77;;;;;;;15.32;60.78;100506.44;4984779;28;20073;-84
2022/04/30 11:03:44;;;;;;;21.67;12.95;;;;;;;15.08;61.42;100507.81;4955460;28;20100;-82
2022/04/30 11:06:12;;;;;;;17.00;11.48;;;;;;;14.99;61.20;100498.03;4982233;28;20050;-85
2022/04/30 11:08:38;;;;;;;18.00;12.32;;;;;;;14.85;61.54;100509.19;4969206;28;20084;-84
2022/04/30 11:11:05;;;;;;;21.85;11.98;;;;;;;14.83;61.43;100500.47;4987599;28;20050;-84
2022/04/30 11:13:33;;;;;;;17.80;11.50;;;;;;;14.62;61.84;100500.69;4985710;28;20049;-85
2022/04/30 11:16:00;;;;;;;17.27;11.68;;;;;;;14.63;61.84;100502.38;4981084;28;20049;-84
2022/04/30 11:18:27;;;;;;;20.98;11.68;;;;;;;14.49;62.01;100509.00;4983007;28;20043;-84
2022/04/30 11:21:00;;;;;;;19.05;11.98;;;;;;;14.38;62.47;100503.84;5000836;28;20134;-85
2022/04/30 11:23:28;;;;;;;17.30;11.15;;;;;;;14.23;62.67;100508.78;4962574;28;20049;-84
2022/04/30 11:25:55;;;;;;;20.05;11.63;;;;;;;14.24;62.74;100497.94;4982765;28;20050;-84
2022/04/30 11:28:28;;;;;;;18.90;11.38;;;;;;;14.26;63.04;100495.13;4984456;28;20042;-84
2022/04/30 11:31:00;;;;;;;16.10;10.48;;;;;;;14.26;62.99;100501.31;4956769;28;20070;-85
2022/04/30 11:33:34;;;;;;;16.73;10.77;;;;;;;14.46;62.57;100496.78;4971892;28;20130;-83
2022/04/30 11:36:00;;;;;;;21.30;10.77;;;;;;;14.47;62.14;100502.94;4983776;28;20050;-85
2022/04/30 11:38:27;;;;;;;18.17;11.13;;;;;;;14.58;61.85;100507.31;4984800;28;20038;-85
2022/04/30 11:41:07;;;;;;;16.02;10.25;;;;;;;14.45;62.11;100502.25;4986783;28;20725;-85
2022/04/30 11:43:36;;;;;;;16.55;10.48;;;;;;;14.58;61.29;100510.84;4949441;28;20391;-85
2022/04/30 11:46:03;;;;;;;16.70;10.80;;;;;;;14.50;61.41;100516.00;4984429;28;20042;-85
2022/04/30 11:48:39;;;;;;;14.88;11.18;;;;;;;14.36;61.74;100505.81;4968992;28;20094;-84
2022/04/30 11:51:09;;;;;;;18.40;11.07;;;;;;;14.27;61.95;100511.03;4995942;28;20544;-85
2022/04/30 11:53:36;;;;;;;17.20;11.70;;;;;;;14.25;61.52;100507.66;4965968;28;20057;-84